Time;durP1;ratioP1;P1;durP2;ratioP2;P2;SDS_P1;SDS_P2;PMS_P1;PMS_P2;Temp;Humidity;BMP_temperature;BMP_pressure;BME280_temperature;BME280_humidity;BME280_pressure;Samples;Min_cycle;Max_cycle;Signal;HPM_P1;HPM_P2
2021/12/27 00:02:25;;;;;;;16.73;10.73;;;4.90;90.80;;;;;;4974979;28;21026;-71
2021/12/27 00:04:51;;;;;;;17.00;11.60;;;5.00;86.80;;;;;;4975040;28;20393;-73
2021/12/27 00:07:16;;;;;;;17.67;11.23;;;4.80;88.60;;;;;;4974633;28;20427;-72
2021/12/27 00:09:43;;;;;;;18.67;11.50;;;4.90;88.60;;;;;;4974844;28;20388;-72
2021/12/27 00:12:08;;;;;;;16.77;10.70;;;5.00;88.30;;;;;;4974431;28;20762;-72
2021/12/27 00:14:34;;;;;;;19.87;12.40;;;5.00;87.40;;;;;;4974838;28;20392;-71
2021/12/27 00:17:00;;;;;;;17.00;11.50;;;4.80;90.30;;;;;;4974772;28;20447;-72
2021/12/27 00:19:25;;;;;;;16.17;11.70;;;4.80;91.80;;;;;;4973570;28;20388;-71
2021/12/27 00:21:51;;;;;;;16.75;11.25;;;4.90;88.30;;;;;;4974379;28;20408;-72
2021/12/27 00:24:17;;;;;;;16.23;10.43;;;4.90;88.70;;;;;;4974931;28;20399;-71
2021/12/27 00:26:44;;;;;;;15.07;10.80;;;5.00;86.50;;;;;;4974601;28;20388;-71
2021/12/27 00:29:10;;;;;;;15.88;11.57;;;5.10;84.50;;;;;;4974170;28;20408;-72
2021/12/27 00:31:36;;;;;;;16.33;11.20;;;5.00;83.80;;;;;;4974578;28;20486;-72
2021/12/27 00:34:02;;;;;;;19.67;11.67;;;5.00;85.50;;;;;;4974416;28;20923;-72
2021/12/27 00:36:27;;;;;;;15.55;11.00;;;5.00;85.40;;;;;;4974116;28;20745;-71
2021/12/27 00:38:53;;;;;;;16.42;10.95;;;5.00;88.10;;;;;;4974411;28;20894;-71
2021/12/27 00:41:18;;;;;;;16.90;11.48;;;5.20;87.10;;;;;;4974122;28;20400;-72
2021/12/27 00:43:44;;;;;;;16.67;11.10;;;4.90;90.20;;;;;;4974717;28;20400;-71
2021/12/27 00:46:10;;;;;;;16.90;11.20;;;4.90;91.30;;;;;;4974882;28;20889;-73
2021/12/27 00:48:35;;;;;;;15.20;10.90;;;5.00;92.20;;;;;;4974347;28;20723;-72
2021/12/27 00:51:02;;;;;;;18.30;11.00;;;5.00;91.50;;;;;;4975206;28;20395;-72
2021/12/27 00:53:28;;;;;;;17.50;10.70;;;5.00;91.30;;;;;;4975517;28;20404;-72
2021/12/27 00:55:53;;;;;;;17.73;10.97;;;5.10;91.30;;;;;;4974101;28;21061;-72
2021/12/27 00:58:19;;;;;;;16.47;11.73;;;4.90;90.70;;;;;;4973708;28;20487;-72
2021/12/27 01:00:45;;;;;;;17.35;11.93;;;5.00;89.90;;;;;;4974230;28;20396;-71
2021/12/27 01:03:11;;;;;;;15.40;11.00;;;4.90;93.50;;;;;;4975832;28;20393;-72
2021/12/27 01:05:36;;;;;;;15.90;10.90;;;5.00;91.60;;;;;;4974838;28;20966;-71
2021/12/27 01:08:04;;;;;;;15.68;11.23;;;4.90;94.60;;;;;;4973636;28;20400;-71
2021/12/27 01:10:59;;;;;;;17.95;11.60;;;4.90;94.00;;;;;;4973665;28;20411;-72
2021/12/27 01:13:37;;;;;;;17.00;11.05;;;5.00;95.10;;;;;;4973625;28;20422;-72
2021/12/27 01:18:33;;;;;;;15.70;10.88;;;5.00;95.60;;;;;;4973352;28;20474;-72
2021/12/27 01:20:59;;;;;;;18.70;11.90;;;5.00;95.80;;;;;;4973291;28;20411;-72
2021/12/27 01:23:25;;;;;;;16.33;11.38;;;5.00;97.60;;;;;;4973869;28;20380;-71
2021/12/27 01:25:51;;;;;;;17.00;11.43;;;4.90;98.90;;;;;;4973534;28;20418;-72
2021/12/27 01:28:18;;;;;;;19.63;12.55;;;5.00;99.40;;;;;;4973430;28;20395;-71
2021/12/27 01:30:49;;;;;;;18.67;12.65;;;5.00;98.50;;;;;;4973219;28;20400;-72
2021/12/27 01:33:17;;;;;;;16.17;11.57;;;4.90;99.90;;;;;;4973858;28;20408;-71
2021/12/27 01:35:42;;;;;;;18.50;12.75;;;5.00;99.90;;;;;;4973519;28;20406;-72
2021/12/27 01:38:09;;;;;;;17.00;11.40;;;5.00;98.50;;;;;;4973334;28;20411;-72
2021/12/27 01:40:35;;;;;;;18.95;11.85;;;4.90;99.90;;;;;;4973262;28;20410;-71
2021/12/27 01:43:11;;;;;;;18.23;11.40;;;5.00;99.90;;;;;;4973088;28;20452;-71
2021/12/27 01:45:59;;;;;;;16.70;11.00;;;5.10;98.70;;;;;;4973039;28;20786;-71
2021/12/27 01:48:29;;;;;;;16.73;11.55;;;5.20;94.80;;;;;;4972459;28;20491;-71
2021/12/27 01:50:56;;;;;;;19.25;12.35;;;5.10;96.80;;;;;;4972686;28;20407;-71
2021/12/27 01:53:25;;;;;;;16.55;11.70;;;5.10;94.90;;;;;;4973370;28;20392;-71
2021/12/27 01:55:51;;;;;;;16.10;10.60;;;5.00;94.70;;;;;;4973172;28;20396;-70
2021/12/27 01:58:17;;;;;;;16.50;11.90;;;5.10;98.40;;;;;;4972831;28;20486;-70
2021/12/27 02:00:46;;;;;;;18.48;11.77;;;5.10;94.40;;;;;;4972585;28;20406;-71
2021/12/27 02:03:14;;;;;;;17.55;11.90;;;5.00;98.00;;;;;;4973319;28;20424;-72
2021/12/27 02:05:40;;;;;;;17.00;11.55;;;5.10;95.10;;;;;;4972842;28;20483;-71
2021/12/27 02:08:06;;;;;;;17.90;11.97;;;5.20;94.10;;;;;;4972546;28;20486;-71
2021/12/27 02:10:32;;;;;;;19.15;12.10;;;5.20;92.70;;;;;;4972713;28;20395;-72
2021/12/27 02:12:59;;;;;;;19.10;12.38;;;5.10;94.10;;;;;;4972115;28;20415;-72
2021/12/27 02:15:25;;;;;;;17.77;11.90;;;5.00;96.40;;;;;;4972637;28;20396;-72
2021/12/27 02:17:50;;;;;;;17.55;11.65;;;5.20;96.00;;;;;;4972459;28;20463;-71
2021/12/27 02:20:21;;;;;;;16.57;10.97;;;5.20;96.30;;;;;;4972816;28;20396;-72
2021/12/27 02:22:48;;;;;;;15.60;10.95;;;5.30;95.10;;;;;;4972191;28;20411;-71
2021/12/27 02:25:15;;;;;;;15.98;11.23;;;5.20;93.50;;;;;;4972321;28;20941;-71
2021/12/27 02:27:43;;;;;;;17.52;12.32;;;5.20;94.50;;;;;;4972326;28;20475;-72
2021/12/27 02:30:11;;;;;;;17.38;11.90;;;5.10;98.20;;;;;;4972322;28;20531;-71
2021/12/27 02:32:54;;;;;;;16.65;11.50;;;5.20;98.60;;;;;;4971912;28;20408;-71
2021/12/27 02:35:21;;;;;;;17.30;11.95;;;5.20;97.50;;;;;;4972239;28;20487;-72
2021/12/27 02:37:47;;;;;;;17.00;11.60;;;5.10;97.50;;;;;;4971907;28;20479;-71
2021/12/27 02:40:12;;;;;;;17.83;11.30;;;5.10;99.80;;;;;;4971006;28;20711;-71
2021/12/27 02:43:00;;;;;;;16.70;11.57;;;5.10;99.90;;;;;;4971935;28;20547;-72
2021/12/27 02:45:28;;;;;;;17.05;12.30;;;5.10;99.30;;;;;;4972256;28;20746;-72
2021/12/27 02:47:54;;;;;;;16.10;11.93;;;5.10;99.90;;;;;;4972071;28;20399;-72
2021/12/27 02:50:22;;;;;;;16.98;11.75;;;5.00;99.90;;;;;;4971991;28;20396;-72
2021/12/27 02:52:48;;;;;;;15.57;10.63;;;5.10;99.90;;;;;;4972193;28;20439;-72
2021/12/27 02:55:16;;;;;;;16.97;10.40;;;5.20;99.20;;;;;;4972388;28;20393;-72
2021/12/27 02:57:43;;;;;;;16.23;11.23;;;5.20;98.20;;;;;;4971389;28;20436;-72
2021/12/27 03:00:18;;;;;;;15.35;10.77;;;5.30;95.00;;;;;;4972010;28;20447;-72
2021/12/27 03:02:46;;;;;;;15.30;10.70;;;5.20;97.40;;;;;;4972039;28;20411;-72
2021/12/27 03:05:13;;;;;;;15.85;10.88;;;5.20;97.70;;;;;;4971902;28;20443;-72
2021/12/27 03:07:40;;;;;;;16.63;11.90;;;5.20;98.80;;;;;;4971633;28;20812;-72
2021/12/27 03:10:08;;;;;;;17.77;11.90;;;5.20;98.30;;;;;;4972276;28;20436;-71
2021/12/27 03:12:34;;;;;;;17.70;11.88;;;5.10;99.90;;;;;;4972128;28;20813;-75
2021/12/27 03:14:59;;;;;;;15.43;10.55;;;5.20;98.40;;;;;;4972128;28;20402;-73
2021/12/27 03:17:25;;;;;;;15.97;10.43;;;5.30;98.50;;;;;;4971868;28;20503;-73
2021/12/27 03:19:51;;;;;;;16.87;11.37;;;5.40;96.10;;;;;;4971524;28;20407;-71
2021/12/27 03:22:16;;;;;;;16.23;11.63;;;5.20;99.30;;;;;;4972090;28;20407;-72
2021/12/27 03:24:42;;;;;;;16.58;10.85;;;5.30;99.40;;;;;;4972095;28;20399;-73
2021/12/27 03:27:07;;;;;;;16.10;10.90;;;5.20;99.90;;;;;;4972167;28;20431;-71
2021/12/27 03:29:33;;;;;;;16.70;11.20;;;5.30;99.00;;;;;;4971484;28;20396;-72
2021/12/27 03:31:59;;;;;;;15.77;11.50;;;5.10;99.90;;;;;;4973595;28;20411;-73
2021/12/27 03:34:24;;;;;;;18.37;12.43;;;5.20;99.90;;;;;;4975219;28;20395;-73
2021/12/27 03:36:50;;;;;;;16.70;11.20;;;5.20;99.90;;;;;;4975792;28;20388;-72
2021/12/27 03:39:15;;;;;;;16.23;11.13;;;5.40;99.30;;;;;;4973954;28;20486;-76
2021/12/27 03:41:41;;;;;;;14.88;10.70;;;5.30;99.60;;;;;;4977285;28;20407;-72
2021/12/27 03:44:07;;;;;;;15.65;10.98;;;5.50;98.00;;;;;;4975034;28;20424;-73
2021/12/27 03:46:32;;;;;;;17.40;11.03;;;5.30;97.10;;;;;;4964875;28;20404;-73
2021/12/27 03:48:59;;;;;;;16.13;11.20;;;5.30;99.30;;;;;;4970091;28;20755;-78
2021/12/27 03:51:25;;;;;;;16.58;11.82;;;5.20;99.90;;;;;;4974146;28;20490;-76
2021/12/27 03:53:52;;;;;;;18.75;11.98;;;5.30;99.90;;;;;;4973855;28;20416;-74
2021/12/27 03:56:22;;;;;;;18.00;11.00;;;5.30;99.90;;;;;;4974526;28;20404;-74
2021/12/27 03:58:56;;;;;;;18.42;11.80;;;5.30;99.90;;;;;;4975135;28;20451;-73
2021/12/27 04:01:23;;;;;;;17.58;11.15;;;5.40;99.90;;;;;;4974456;28;20427;-73
2021/12/27 04:03:52;;;;;;;15.07;10.90;;;5.60;98.90;;;;;;4975038;28;20742;-75
2021/12/27 04:06:19;;;;;;;18.55;11.80;;;5.50;97.10;;;;;;4977746;28;20420;-71
2021/12/27 04:08:45;;;;;;;14.98;10.50;;;5.50;97.10;;;;;;4978591;28;20431;-77
2021/12/27 04:11:11;;;;;;;16.50;10.93;;;5.60;95.50;;;;;;4981170;28;20726;-79
2021/12/27 04:13:36;;;;;;;15.83;10.77;;;5.60;96.50;;;;;;4980541;28;20495;-71
2021/12/27 04:16:02;;;;;;;13.70;10.00;;;5.60;94.60;;;;;;4974929;28;20412;-71
2021/12/27 04:18:28;;;;;;;14.65;11.10;;;5.50;95.00;;;;;;4976202;28;20408;-71
2021/12/27 04:20:53;;;;;;;17.13;10.65;;;5.50;96.80;;;;;;4976989;28;20404;-71
2021/12/27 04:23:19;;;;;;;14.50;10.30;;;5.50;97.10;;;;;;4974912;28;20416;-71
2021/12/27 04:25:45;;;;;;;16.15;10.57;;;5.70;95.70;;;;;;4974764;28;20384;-71
2021/12/27 04:28:12;;;;;;;14.45;9.90;;;5.70;93.80;;;;;;4974765;28;20388;-71
2021/12/27 04:30:39;;;;;;;17.77;11.00;;;5.70;92.30;;;;;;4974936;28;20396;-72
2021/12/27 04:33:05;;;;;;;15.80;10.70;;;5.60;93.40;;;;;;4974662;28;20392;-71
2021/12/27 04:35:31;;;;;;;14.90;10.30;;;5.80;91.70;;;;;;4974632;28;20534;-72
2021/12/27 04:37:57;;;;;;;13.07;10.00;;;5.70;93.30;;;;;;4974337;28;20451;-71
2021/12/27 04:40:24;;;;;;;14.30;10.50;;;5.60;94.00;;;;;;4974810;28;20512;-71
2021/12/27 04:42:56;;;;;;;14.55;9.88;;;5.70;95.00;;;;;;4974247;28;20399;-71
2021/12/27 04:45:22;;;;;;;15.23;10.45;;;5.70;94.30;;;;;;4974569;28;20389;-71
2021/12/27 04:47:48;;;;;;;13.15;9.82;;;5.70;96.30;;;;;;4974110;28;20407;-72
2021/12/27 04:50:14;;;;;;;15.55;10.90;;;5.70;96.00;;;;;;4974402;28;20396;-72
2021/12/27 04:52:40;;;;;;;14.00;10.50;;;5.70;98.00;;;;;;4974088;28;20404;-71
2021/12/27 04:55:06;;;;;;;15.75;10.60;;;5.70;97.60;;;;;;4974322;28;20877;-71
2021/12/27 04:57:32;;;;;;;14.60;10.10;;;5.60;98.10;;;;;;4973808;28;20434;-71
2021/12/27 04:59:58;;;;;;;16.45;10.55;;;5.70;99.40;;;;;;4973908;28;20873;-71
2021/12/27 05:02:24;;;;;;;14.07;10.00;;;5.60;99.90;;;;;;4974005;28;20396;-71
2021/12/27 05:04:49;;;;;;;14.20;10.13;;;5.70;99.90;;;;;;4973962;28;20898;-72
2021/12/27 05:07:15;;;;;;;15.13;10.60;;;5.60;99.10;;;;;;4973606;28;20439;-73
2021/12/27 05:09:41;;;;;;;16.52;11.07;;;5.70;98.90;;;;;;4973890;28;20427;-72
2021/12/27 05:12:07;;;;;;;18.48;10.60;;;5.60;99.90;;;;;;4973995;28;20928;-71
2021/12/27 05:14:33;;;;;;;15.75;10.25;;;5.60;99.90;;;;;;4973699;28;20435;-71
2021/12/27 05:16:58;;;;;;;15.38;10.90;;;5.70;99.90;;;;;;4973726;28;20818;-72
2021/12/27 05:19:24;;;;;;;15.40;11.20;;;5.60;99.90;;;;;;4973156;28;20735;-72
2021/12/27 05:21:49;;;;;;;14.63;10.60;;;5.70;99.00;;;;;;4974417;28;20488;-72
2021/12/27 05:24:15;;;;;;;14.40;10.10;;;5.70;99.90;;;;;;4974441;28;20388;-72
2021/12/27 05:26:40;;;;;;;15.13;10.00;;;5.80;97.30;;;;;;4974135;28;20392;-72
2021/12/27 05:29:06;;;;;;;15.43;10.85;;;5.80;96.00;;;;;;4974263;28;20486;-71
2021/12/27 05:31:32;;;;;;;16.33;9.93;;;5.70;97.70;;;;;;4972694;28;20407;-72
2021/12/27 05:33:57;;;;;;;16.20;10.27;;;5.80;97.50;;;;;;4973702;28;20399;-72
2021/12/27 05:36:23;;;;;;;15.60;10.07;;;5.70;97.50;;;;;;4973907;28;20491;-72
2021/12/27 05:38:49;;;;;;;13.93;9.53;;;5.90;93.50;;;;;;4973731;28;20420;-72
2021/12/27 05:41:14;;;;;;;14.35;9.57;;;5.80;95.20;;;;;;4973482;28;20388;-72
2021/12/27 05:43:40;;;;;;;15.57;11.20;;;5.80;95.60;;;;;;4973453;28;20436;-72
2021/12/27 05:46:06;;;;;;;14.02;9.70;;;5.60;99.20;;;;;;4971875;28;20402;-71
2021/12/27 05:48:31;;;;;;;14.37;9.50;;;5.80;95.20;;;;;;4972752;28;20423;-72
2021/12/27 05:50:57;;;;;;;12.67;9.90;;;5.80;95.80;;;;;;4973001;28;20412;-71
2021/12/27 05:53:23;;;;;;;13.40;9.40;;;5.80;95.50;;;;;;4973387;28;20953;-71
2021/12/27 05:55:50;;;;;;;13.07;9.70;;;5.80;95.90;;;;;;4973064;28;20786;-71
2021/12/27 05:58:16;;;;;;;15.00;10.15;;;5.70;96.30;;;;;;4972709;28;20491;-72
2021/12/27 06:00:42;;;;;;;16.23;10.40;;;5.80;96.50;;;;;;4973078;28;20458;-72
2021/12/27 06:03:07;;;;;;;15.37;9.47;;;5.80;95.90;;;;;;4973370;28;20424;-72
2021/12/27 06:05:33;;;;;;;12.13;9.90;;;5.80;95.80;;;;;;4973163;28;20396;-72
2021/12/27 06:08:00;;;;;;;13.90;9.50;;;5.80;95.50;;;;;;4972581;28;20805;-72
2021/12/27 06:10:26;;;;;;;12.57;9.13;;;5.90;95.60;;;;;;4967347;28;20416;-72
2021/12/27 06:12:52;;;;;;;12.82;9.70;;;5.80;96.50;;;;;;4971860;28;20392;-73
2021/12/27 06:15:18;;;;;;;12.60;9.33;;;5.90;96.40;;;;;;4973171;28;20423;-72
2021/12/27 06:17:43;;;;;;;12.60;8.93;;;5.90;95.70;;;;;;4977514;28;20439;-72
2021/12/27 06:20:13;;;;;;;13.10;9.57;;;6.00;92.70;;;;;;4976957;28;20450;-72
2021/12/27 06:22:43;;;;;;;13.32;9.20;;;6.00;93.30;;;;;;4972873;28;20400;-73
2021/12/27 06:25:09;;;;;;;14.52;10.10;;;6.00;92.90;;;;;;4972668;28;20402;-73
2021/12/27 06:27:35;;;;;;;15.67;9.40;;;6.10;93.80;;;;;;4971936;28;20942;-72
2021/12/27 06:30:02;;;;;;;13.13;9.50;;;6.00;92.60;;;;;;4973039;28;20388;-71
2021/12/27 06:32:27;;;;;;;14.20;9.95;;;6.00;94.40;;;;;;4973007;28;20947;-72
2021/12/27 06:34:53;;;;;;;14.10;9.90;;;6.20;91.10;;;;;;4972790;28;20385;-72
2021/12/27 06:37:19;;;;;;;15.48;10.23;;;6.10;91.90;;;;;;4972812;28;20481;-72
2021/12/27 06:39:44;;;;;;;12.70;9.00;;;6.00;92.10;;;;;;4972782;28;20889;-71
2021/12/27 06:42:10;;;;;;;13.90;9.37;;;6.00;95.00;;;;;;4972839;28;20396;-72
2021/12/27 06:44:36;;;;;;;12.20;9.10;;;6.10;94.20;;;;;;4972695;28;20392;-72
2021/12/27 06:47:02;;;;;;;14.57;9.75;;;6.20;92.50;;;;;;4972853;28;20392;-72
2021/12/27 06:49:28;;;;;;;14.13;10.02;;;6.10;91.30;;;;;;4972498;28;20402;-71
2021/12/27 06:51:53;;;;;;;15.93;10.40;;;6.10;92.90;;;;;;4972364;28;20396;-71
2021/12/27 06:54:19;;;;;;;14.10;9.73;;;6.00;92.10;;;;;;4972160;28;20951;-71
2021/12/27 06:56:45;;;;;;;12.90;9.30;;;6.10;95.10;;;;;;4971935;28;20384;-71
2021/12/27 06:59:11;;;;;;;15.53;10.20;;;6.10;92.50;;;;;;4972002;28;20443;-72
2021/12/27 07:01:36;;;;;;;14.48;9.45;;;6.10;93.00;;;;;;4972362;28;20746;-72
2021/12/27 07:04:02;;;;;;;13.57;9.90;;;6.10;93.60;;;;;;4972364;28;20463;-72
2021/12/27 07:06:28;;;;;;;12.73;9.60;;;6.20;92.70;;;;;;4972107;28;20474;-72
2021/12/27 07:08:53;;;;;;;13.60;9.90;;;6.10;92.40;;;;;;4972224;28;20398;-71
2021/12/27 07:11:19;;;;;;;14.57;9.90;;;6.20;92.70;;;;;;4972045;28;20403;-71
2021/12/27 07:13:45;;;;;;;14.10;9.47;;;6.20;90.90;;;;;;4972277;28;20403;-71
2021/12/27 07:16:10;;;;;;;17.75;10.60;;;6.10;92.40;;;;;;4972184;28;20399;-72
2021/12/27 07:18:36;;;;;;;12.30;9.55;;;6.00;96.10;;;;;;4971729;28;20416;-72
2021/12/27 07:21:01;;;;;;;17.08;10.35;;;6.00;95.90;;;;;;4972146;28;20408;-72
2021/12/27 07:23:27;;;;;;;14.40;10.15;;;6.00;96.90;;;;;;4972189;28;20388;-70
2021/12/27 07:25:53;;;;;;;13.90;9.50;;;6.00;96.70;;;;;;4971975;28;20400;-71
2021/12/27 07:28:18;;;;;;;13.80;9.17;;;6.00;97.40;;;;;;4971708;28;20758;-72
2021/12/27 07:30:44;;;;;;;12.50;8.93;;;6.10;94.90;;;;;;4972238;28;20730;-71
2021/12/27 07:33:10;;;;;;;11.60;8.48;;;6.20;91.30;;;;;;4972018;28;20430;-72
2021/12/27 07:35:36;;;;;;;13.95;10.27;;;6.30;91.80;;;;;;4971945;28;20392;-70
2021/12/27 07:38:01;;;;;;;13.70;9.90;;;6.20;92.30;;;;;;4973702;28;20896;-71
2021/12/27 07:40:27;;;;;;;12.80;9.03;;;6.20;91.90;;;;;;4975704;28;20479;-72
2021/12/27 07:42:53;;;;;;;13.48;9.10;;;6.30;92.00;;;;;;4976629;28;20391;-72
2021/12/27 07:45:19;;;;;;;13.48;9.65;;;6.40;90.10;;;;;;4977349;28;20475;-72
2021/12/27 07:47:45;;;;;;;16.10;10.30;;;6.20;92.50;;;;;;4977526;28;20433;-73
2021/12/27 07:50:11;;;;;;;12.57;9.10;;;6.20;93.00;;;;;;4977443;28;20388;-72
2021/12/27 07:52:36;;;;;;;13.27;9.33;;;6.30;91.90;;;;;;4976323;28;20403;-72
2021/12/27 07:55:03;;;;;;;13.30;9.40;;;6.30;91.40;;;;;;4975726;28;20765;-71
2021/12/27 07:57:29;;;;;;;15.43;9.50;;;6.30;92.50;;;;;;4975551;28;20400;-71
2021/12/27 07:59:55;;;;;;;13.93;9.10;;;6.30;90.30;;;;;;4975402;28;20392;-71
2021/12/27 08:02:20;;;;;;;14.83;9.80;;;6.30;91.00;;;;;;4974313;28;20491;-72
2021/12/27 08:04:46;;;;;;;15.40;9.20;;;6.30;90.60;;;;;;4977412;28;20400;-73
2021/12/27 08:07:12;;;;;;;14.90;8.87;;;6.30;91.70;;;;;;4974971;28;20407;-72
2021/12/27 08:09:37;;;;;;;11.80;8.60;;;6.30;90.10;;;;;;4973667;28;20397;-72
2021/12/27 08:12:05;;;;;;;11.75;8.93;;;6.40;86.10;;;;;;4975135;28;20905;-72
2021/12/27 08:14:30;;;;;;;11.23;8.43;;;6.30;87.20;;;;;;4974952;28;20399;-70
2021/12/27 08:16:56;;;;;;;13.57;9.90;;;6.20;89.20;;;;;;4974643;28;20486;-71
2021/12/27 08:19:21;;;;;;;15.50;9.60;;;6.00;93.60;;;;;;4975219;28;20757;-72
2021/12/27 08:21:47;;;;;;;13.38;9.20;;;6.10;91.80;;;;;;4976099;28;20397;-73
2021/12/27 08:24:13;;;;;;;15.05;9.57;;;6.00;93.50;;;;;;4975791;28;20388;-72
2021/12/27 08:26:38;;;;;;;14.80;10.20;;;6.00;92.50;;;;;;4972823;28;20408;-72
2021/12/27 08:29:08;;;;;;;12.67;8.80;;;6.10;91.50;;;;;;4974550;28;21214;-72
2021/12/27 08:31:33;;;;;;;14.57;9.75;;;6.00;91.30;;;;;;4975242;28;20446;-71
2021/12/27 08:33:59;;;;;;;13.63;10.23;;;6.00;92.90;;;;;;4974931;28;20785;-72
2021/12/27 08:36:24;;;;;;;14.10;10.00;;;5.90;95.70;;;;;;4974569;28;20446;-71
2021/12/27 08:38:51;;;;;;;13.67;9.67;;;5.80;98.00;;;;;;4974590;28;20416;-72
2021/12/27 08:41:18;;;;;;;15.07;9.87;;;5.90;95.10;;;;;;4974742;28;20474;-72
2021/12/27 08:43:44;;;;;;;15.45;10.13;;;5.90;96.40;;;;;;4974703;28;20392;-72
2021/12/27 08:46:10;;;;;;;14.38;9.68;;;5.90;98.30;;;;;;4974945;28;20399;-72
2021/12/27 08:48:36;;;;;;;14.02;10.25;;;5.80;96.70;;;;;;4973851;28;20483;-72
2021/12/27 08:51:02;;;;;;;15.60;10.30;;;5.90;98.60;;;;;;4975127;28;20515;-72
2021/12/27 08:53:28;;;;;;;13.93;10.13;;;5.90;96.60;;;;;;4974973;28;20397;-72
2021/12/27 08:55:54;;;;;;;16.20;9.30;;;5.90;99.00;;;;;;4973400;28;20400;-72
2021/12/27 08:58:20;;;;;;;15.20;9.93;;;6.10;99.30;;;;;;4976566;28;20414;-73
2021/12/27 09:00:45;;;;;;;14.10;9.40;;;6.30;93.10;;;;;;4978232;28;20391;-73
2021/12/27 09:03:11;;;;;;;14.32;10.05;;;6.30;93.30;;;;;;4975205;28;20398;-72
2021/12/27 09:05:41;;;;;;;12.15;9.40;;;6.40;92.90;;;;;;4974383;28;20464;-71
2021/12/27 09:08:07;;;;;;;13.23;9.38;;;6.40;90.80;;;;;;4973797;28;20466;-72
2021/12/27 09:10:33;;;;;;;13.68;8.82;;;6.50;88.60;;;;;;4974081;28;20388;-71
2021/12/27 09:13:00;;;;;;;15.30;9.27;;;6.60;89.30;;;;;;4974011;28;20515;-71
2021/12/27 09:15:26;;;;;;;11.85;8.60;;;6.70;86.90;;;;;;4974537;28;20446;-72
2021/12/27 09:17:52;;;;;;;11.18;8.18;;;6.60;88.70;;;;;;4974497;28;20448;-71
2021/12/27 09:20:18;;;;;;;14.07;9.40;;;6.60;89.00;;;;;;4982628;28;20403;-70
2021/12/27 09:22:43;;;;;;;11.90;8.68;;;6.80;89.30;;;;;;4984624;28;20408;-73
2021/12/27 09:25:09;;;;;;;12.87;8.30;;;7.00;83.60;;;;;;4975660;28;20404;-72
2021/12/27 09:27:35;;;;;;;13.37;9.20;;;7.10;83.30;;;;;;4973775;28;20407;-72
2021/12/27 09:30:01;;;;;;;11.48;7.90;;;7.20;81.10;;;;;;4973471;28;20384;-72
2021/12/27 09:32:27;;;;;;;11.73;8.73;;;7.40;80.70;;;;;;4973907;28;20388;-72
2021/12/27 09:34:53;;;;;;;10.73;8.20;;;7.30;80.90;;;;;;4973423;28;20747;-72
2021/12/27 09:37:18;;;;;;;12.80;8.40;;;7.50;78.80;;;;;;4973380;28;20418;-72
2021/12/27 09:39:44;;;;;;;12.35;8.55;;;7.50;78.40;;;;;;4973640;28;20471;-72
2021/12/27 09:42:10;;;;;;;11.50;7.90;;;7.50;77.40;;;;;;4973598;28;20753;-72
2021/12/27 09:44:36;;;;;;;12.18;8.15;;;7.40;79.50;;;;;;4978272;28;20384;-72
2021/12/27 09:47:02;;;;;;;9.93;7.50;;;7.50;77.90;;;;;;4971460;28;20966;-71
2021/12/27 09:49:29;;;;;;;10.93;7.40;;;7.40;78.40;;;;;;4973191;28;20407;-71
2021/12/27 09:51:57;;;;;;;12.07;7.47;;;7.50;80.20;;;;;;4973384;28;20892;-71
2021/12/27 09:54:25;;;;;;;10.73;7.70;;;7.50;81.40;;;;;;4973475;28;20896;-71
2021/12/27 09:56:51;;;;;;;9.80;7.35;;;7.60;79.30;;;;;;4973262;28;20388;-71
2021/12/27 09:59:17;;;;;;;10.73;7.17;;;7.60;79.80;;;;;;4973763;28;20431;-72
2021/12/27 10:01:42;;;;;;;12.13;7.77;;;7.60;79.30;;;;;;4973460;28;20468;-72
2021/12/27 10:04:08;;;;;;;9.77;7.37;;;7.60;79.30;;;;;;4974001;28;20400;-71
2021/12/27 10:06:34;;;;;;;11.50;8.95;;;7.70;79.60;;;;;;4973044;28;20392;-71
2021/12/27 10:09:02;;;;;;;12.32;8.00;;;7.70;80.70;;;;;;4972757;28;20470;-71
2021/12/27 10:11:34;;;;;;;10.63;7.05;;;7.60;79.40;;;;;;4972952;28;20479;-71
2021/12/27 10:14:13;;;;;;;12.07;8.00;;;7.60;79.90;;;;;;4973108;28;20396;-72
2021/12/27 10:16:40;;;;;;;11.23;8.20;;;7.60;81.40;;;;;;4973173;28;20396;-72
2021/12/27 10:19:09;;;;;;;9.53;7.77;;;7.60;81.00;;;;;;4972905;28;20415;-72
2021/12/27 10:21:36;;;;;;;10.18;8.02;;;7.70;81.20;;;;;;4973846;28;20400;-73
2021/12/27 10:24:08;;;;;;;13.18;7.95;;;7.80;79.00;;;;;;4975187;28;20380;-72
2021/12/27 10:26:36;;;;;;;12.88;8.20;;;7.90;78.80;;;;;;4974441;28;20391;-72
2021/12/27 10:29:09;;;;;;;11.03;7.57;;;8.00;78.20;;;;;;4974157;28;20454;-73
2021/12/27 10:32:09;;;;;;;11.57;7.80;;;8.10;74.90;;;;;;4975025;28;20475;-73
2021/12/27 10:34:37;;;;;;;12.45;8.10;;;8.10;77.20;;;;;;4974718;28;20444;-72
2021/12/27 10:37:27;;;;;;;12.73;8.30;;;8.10;76.60;;;;;;4975160;28;20439;-72
2021/12/27 10:40:03;;;;;;;11.77;7.68;;;8.30;77.50;;;;;;4974453;28;20384;-72
2021/12/27 10:42:39;;;;;;;10.20;7.00;;;8.20;75.20;;;;;;4974811;28;20478;-72
2021/12/27 10:45:08;;;;;;;12.00;7.70;;;8.20;77.00;;;;;;4975317;28;20392;-72
2021/12/27 10:47:35;;;;;;;11.43;7.60;;;8.30;78.40;;;;;;4974961;28;20392;-72
2021/12/27 10:50:16;;;;;;;16.38;8.40;;;8.50;76.30;;;;;;4975210;28;20393;-71
2021/12/27 10:52:52;;;;;;;9.07;7.25;;;8.50;74.40;;;;;;4975047;28;20458;-72
2021/12/27 10:55:29;;;;;;;11.27;8.25;;;8.50;74.60;;;;;;4974832;28;20446;-72
2021/12/27 10:58:18;;;;;;;11.85;7.40;;;8.30;77.60;;;;;;4974509;28;20470;-72
2021/12/27 11:00:46;;;;;;;12.20;7.35;;;8.50;75.30;;;;;;4974646;28;20392;-74
2021/12/27 11:03:36;;;;;;;9.32;6.30;;;8.50;75.20;;;;;;4974858;28;20385;-73
2021/12/27 11:06:04;;;;;;;9.23;7.13;;;8.50;74.80;;;;;;4976298;28;20392;-73
2021/12/27 11:08:31;;;;;;;8.73;6.70;;;8.50;76.10;;;;;;4975304;28;20388;-74
2021/12/27 11:10:57;;;;;;;10.57;6.60;;;8.40;75.40;;;;;;4977169;28;20396;-71
2021/12/27 11:13:25;;;;;;;10.30;6.97;;;8.10;80.00;;;;;;4979413;28;20410;-72
2021/12/27 11:15:51;;;;;;;9.63;7.10;;;8.20;80.10;;;;;;4982704;28;20398;-72
2021/12/27 11:18:17;;;;;;;8.10;6.72;;;8.10;79.60;;;;;;4980977;28;20427;-73
2021/12/27 11:20:51;;;;;;;11.23;7.25;;;8.10;82.00;;;;;;4979522;28;20464;-74
2021/12/27 11:23:19;;;;;;;11.98;6.93;;;8.10;82.40;;;;;;4979469;28;20392;-73
2021/12/27 11:25:46;;;;;;;11.00;7.13;;;8.20;81.20;;;;;;4980606;28;20750;-73
2021/12/27 11:28:30;;;;;;;8.80;6.80;;;8.30;79.10;;;;;;4978874;28;20388;-73
2021/12/27 11:30:57;;;;;;;8.57;6.63;;;8.50;77.40;;;;;;4980311;28;20398;-72
2021/12/27 11:33:24;;;;;;;10.15;6.05;;;8.70;73.70;;;;;;4980081;28;20919;-73
2021/12/27 11:35:58;;;;;;;9.07;6.70;;;8.50;74.70;;;;;;4981696;28;20399;-75
2021/12/27 11:38:29;;;;;;;10.52;7.00;;;8.60;74.90;;;;;;4980326;28;20439;-73
2021/12/27 11:40:55;;;;;;;9.80;7.00;;;8.80;73.80;;;;;;4983466;28;20435;-74
2021/12/27 11:43:21;;;;;;;10.77;7.00;;;8.80;71.60;;;;;;4984076;28;20392;-73
2021/12/27 11:45:55;;;;;;;8.80;6.60;;;8.80;72.50;;;;;;4978507;28;20435;-74
2021/12/27 11:48:26;;;;;;;9.43;6.13;;;9.00;70.80;;;;;;4976564;28;20420;-73
2021/12/27 11:51:08;;;;;;;7.15;5.72;;;9.10;71.70;;;;;;4978180;28;20396;-73
2021/12/27 11:53:50;;;;;;;9.50;6.28;;;9.20;68.80;;;;;;4977868;28;20890;-73
2021/12/27 11:56:39;;;;;;;8.90;6.07;;;9.10;70.30;;;;;;4977935;28;20391;-71
2021/12/27 11:59:25;;;;;;;7.72;6.20;;;9.00;72.20;;;;;;4966093;28;20456;-73
2021/12/27 12:02:21;;;;;;;7.10;6.20;;;9.00;73.10;;;;;;4977943;28;20387;-75
2021/12/27 12:04:49;;;;;;;8.48;6.20;;;9.00;71.50;;;;;;4978782;28;20399;-74
2021/12/27 12:07:48;;;;;;;7.15;6.15;;;8.90;73.00;;;;;;4977347;28;20396;-73
2021/12/27 12:10:15;;;;;;;6.93;5.60;;;8.90;72.20;;;;;;4935484;28;20753;-74
2021/12/27 12:12:40;;;;;;;8.32;5.80;;;9.00;72.90;;;;;;4977527;28;20384;-71
2021/12/27 12:15:08;;;;;;;8.18;5.75;;;9.00;73.80;;;;;;4977106;28;20451;-72
2021/12/27 12:17:47;;;;;;;8.00;6.38;;;9.00;75.20;;;;;;4976729;28;20443;-72
2021/12/27 12:20:30;;;;;;;10.90;6.18;;;9.10;73.70;;;;;;4977032;28;20396;-72
2021/12/27 12:23:06;;;;;;;10.60;6.20;;;9.10;74.00;;;;;;4978378;28;20431;-71
2021/12/27 12:25:32;;;;;;;8.70;6.37;;;9.00;75.80;;;;;;4978439;28;20440;-72
2021/12/27 12:28:00;;;;;;;7.85;5.70;;;9.30;73.90;;;;;;4977291;28;20761;-73
2021/12/27 12:30:32;;;;;;;8.43;5.80;;;9.20;73.10;;;;;;4977613;28;20384;-73
2021/12/27 12:33:30;;;;;;;7.70;5.45;;;9.50;70.70;;;;;;4979754;28;20900;-73
2021/12/27 12:35:59;;;;;;;7.30;5.70;;;9.50;69.10;;;;;;4936715;28;20392;-72
2021/12/27 12:38:33;;;;;;;7.07;5.57;;;9.40;70.70;;;;;;4979290;28;20484;-71
2021/12/27 12:41:11;;;;;;;7.35;5.60;;;9.40;70.20;;;;;;4980095;28;20389;-72
2021/12/27 12:43:47;;;;;;;7.25;5.40;;;9.40;70.50;;;;;;4978841;28;20393;-73
2021/12/27 12:46:25;;;;;;;9.52;6.20;;;9.30;72.80;;;;;;4977060;28;20388;-73
2021/12/27 12:49:02;;;;;;;7.75;5.47;;;9.20;71.30;;;;;;4975517;28;20380;-72
2021/12/27 12:51:49;;;;;;;6.07;5.00;;;9.20;71.20;;;;;;4976233;28;20399;-72